createdAt,value
2017-07-16T00:00:41.670Z,18.62
2017-07-16T00:05:37.522Z,18.56
2017-07-16T00:10:33.388Z,18.59
2017-07-16T00:15:30.140Z,18.40
2017-07-16T00:20:25.724Z,18.40
2017-07-16T00:25:21.599Z,18.40
2017-07-16T00:30:17.951Z,18.40
2017-07-16T00:35:14.657Z,18.34
2017-07-16T00:40:10.664Z,18.28
2017-07-16T00:45:07.160Z,18.35
2017-07-16T00:50:03.048Z,18.41
2017-07-16T00:54:58.965Z,18.34
2017-07-16T00:59:55.258Z,18.38
2017-07-16T01:04:50.979Z,18.31
2017-07-16T01:09:47.275Z,18.38
2017-07-16T01:14:43.663Z,18.37
2017-07-16T01:19:39.869Z,18.31
2017-07-16T01:24:35.543Z,18.37
2017-07-16T01:29:31.865Z,18.44
2017-07-16T01:34:28.933Z,18.38
2017-07-16T01:39:24.596Z,18.34
2017-07-16T01:44:20.490Z,18.37
2017-07-16T01:49:16.357Z,18.40
2017-07-16T01:54:12.314Z,18.37
2017-07-16T01:59:08.016Z,18.35
2017-07-16T02:04:04.852Z,18.26
2017-07-16T02:09:00.511Z,18.34
2017-07-16T02:13:56.895Z,18.20
2017-07-16T02:18:52.761Z,18.29
2017-07-16T02:23:48.516Z,18.33
2017-07-16T02:28:44.104Z,18.38
2017-07-16T02:33:41.097Z,18.34
2017-07-16T02:38:37.468Z,18.40
2017-07-16T02:43:32.885Z,18.40
2017-07-16T02:48:28.802Z,18.38
2017-07-16T02:53:24.685Z,18.38
2017-07-16T02:58:20.647Z,18.43
2017-07-16T03:03:16.467Z,18.40
2017-07-16T03:08:12.455Z,18.34
2017-07-16T03:13:08.308Z,18.44
2017-07-16T03:18:04.328Z,18.41
2017-07-16T03:23:00.190Z,18.33
2017-07-16T03:27:56.827Z,18.40
2017-07-16T03:32:53.654Z,18.35
2017-07-16T03:37:49.530Z,18.33
2017-07-16T03:42:45.371Z,18.28
2017-07-16T03:47:41.483Z,18.28
2017-07-16T03:52:37.783Z,18.15
2017-07-16T03:57:33.569Z,18.22
2017-07-16T04:02:30.420Z,18.23
2017-07-16T04:07:26.080Z,18.25
2017-07-16T04:12:22.060Z,18.16
2017-07-16T04:17:18.173Z,18.19
2017-07-16T04:22:14.115Z,18.23
2017-07-16T04:27:10.029Z,18.04
2017-07-16T04:32:07.667Z,18.26
2017-07-16T04:37:04.226Z,18.25
2017-07-16T04:41:59.936Z,18.34
2017-07-16T04:46:55.899Z,18.25
2017-07-16T04:51:52.993Z,18.20
2017-07-16T04:56:48.615Z,18.25
2017-07-16T05:01:44.403Z,18.19
2017-07-16T05:06:40.344Z,18.34
2017-07-16T05:11:37.249Z,18.41
2017-07-16T05:16:33.741Z,18.38
2017-07-16T05:21:30.657Z,18.37
2017-07-16T05:26:27.247Z,18.29
2017-07-16T05:31:23.940Z,18.28
2017-07-16T05:36:19.605Z,18.34
2017-07-16T05:41:15.476Z,18.23
2017-07-16T05:46:11.451Z,18.26
2017-07-16T05:51:07.289Z,18.33
2017-07-16T05:56:03.265Z,18.37
2017-07-16T06:00:59.212Z,18.47
2017-07-16T06:05:56.448Z,18.38
2017-07-16T06:10:52.690Z,18.41
2017-07-16T06:15:48.960Z,18.52
2017-07-16T06:20:45.161Z,18.38
2017-07-16T06:25:42.316Z,18.33
2017-07-16T06:30:38.086Z,18.53
2017-07-16T06:35:35.547Z,18.52
2017-07-16T06:40:31.279Z,18.59
2017-07-16T06:45:28.042Z,18.62
2017-07-16T06:50:24.734Z,18.55
2017-07-16T06:55:20.440Z,18.47
2017-07-16T07:00:17.322Z,18.50
2017-07-16T07:05:13.016Z,18.59
2017-07-16T07:10:08.757Z,18.49
2017-07-16T07:15:05.132Z,18.55
2017-07-16T07:20:01.365Z,18.70
2017-07-16T07:24:57.560Z,18.65
2017-07-16T07:29:53.518Z,18.81
2017-07-16T07:34:49.198Z,18.70
2017-07-16T07:39:44.882Z,18.68
2017-07-16T07:44:40.561Z,18.58
2017-07-16T07:49:37.444Z,18.53
2017-07-16T07:54:33.107Z,18.74
2017-07-16T07:59:30.139Z,18.74
2017-07-16T08:04:26.635Z,18.77
2017-07-16T08:09:23.239Z,18.66
2017-07-16T08:14:20.120Z,18.83
2017-07-16T08:19:16.082Z,18.83
2017-07-16T08:24:12.586Z,18.98
2017-07-16T08:29:08.658Z,19.00
2017-07-16T08:34:06.050Z,18.99
2017-07-16T08:39:02.900Z,19.07
2017-07-16T08:43:58.765Z,19.15
2017-07-16T08:48:54.834Z,19.15
2017-07-16T08:53:51.893Z,19.11
2017-07-16T08:58:47.451Z,19.11
2017-07-16T09:03:44.097Z,19.27
2017-07-16T09:08:40.970Z,19.30
2017-07-16T09:13:36.708Z,19.24
2017-07-16T09:18:32.488Z,19.29
2017-07-16T09:23:28.253Z,19.18
2017-07-16T09:28:26.245Z,19.16
2017-07-16T09:33:21.579Z,19.26
2017-07-16T09:38:17.395Z,19.31
2017-07-16T09:43:13.216Z,19.34
2017-07-16T09:48:09.030Z,19.34
2017-07-16T09:53:06.001Z,19.44
2017-07-16T09:58:02.094Z,19.49
2017-07-16T10:02:59.560Z,19.66
2017-07-16T10:07:56.520Z,20.21
2017-07-16T10:12:52.947Z,20.21
2017-07-16T10:17:49.749Z,20.34
2017-07-16T10:22:46.224Z,20.60
2017-07-16T10:27:44.350Z,20.63
2017-07-16T10:32:39.856Z,20.77
2017-07-16T10:37:36.001Z,20.84
2017-07-16T10:42:32.019Z,20.77
2017-07-16T10:47:28.357Z,21.07
2017-07-16T10:52:25.239Z,21.54
2017-07-16T10:57:21.953Z,21.36
2017-07-16T11:02:18.142Z,21.27
2017-07-16T11:07:13.671Z,21.07
2017-07-16T11:12:09.079Z,20.99
2017-07-16T11:17:05.282Z,20.92
2017-07-16T11:22:02.173Z,21.50
2017-07-16T11:26:57.813Z,21.60
2017-07-16T11:31:54.505Z,21.46
2017-07-16T11:36:49.749Z,21.39
2017-07-16T11:41:45.379Z,21.29
2017-07-16T11:46:41.925Z,21.22
2017-07-16T11:51:39.915Z,21.29
2017-07-16T11:56:35.398Z,21.33
2017-07-16T12:01:31.220Z,21.27
2017-07-16T12:06:29.355Z,21.27
2017-07-16T12:11:25.689Z,21.05
2017-07-16T12:16:22.516Z,21.02
2017-07-16T12:21:18.482Z,21.12
2017-07-16T12:26:15.608Z,21.27
2017-07-16T12:31:11.854Z,21.43
2017-07-16T12:36:08.418Z,21.64
2017-07-16T12:41:04.516Z,21.66
2017-07-16T12:46:00.379Z,21.50
2017-07-16T12:50:56.419Z,21.66
2017-07-16T12:55:52.460Z,21.75
2017-07-16T13:00:48.430Z,21.79
2017-07-16T13:05:45.016Z,21.54
2017-07-16T13:10:40.471Z,21.39
2017-07-16T13:15:36.178Z,21.29
2017-07-16T13:20:32.060Z,21.21
2017-07-16T13:25:29.164Z,21.30
2017-07-16T13:30:26.182Z,21.07
2017-07-16T13:35:22.226Z,20.97
2017-07-16T13:40:17.743Z,20.96
2017-07-16T13:45:14.570Z,20.85
2017-07-16T13:50:11.181Z,20.87
2017-07-16T13:55:06.813Z,20.85
2017-07-16T14:00:03.394Z,21.00
2017-07-16T14:05:00.154Z,21.14
2017-07-16T14:09:57.391Z,21.25
2017-07-16T14:14:53.499Z,21.33
2017-07-16T14:19:50.349Z,21.35
2017-07-16T14:24:45.913Z,21.57
2017-07-16T14:29:42.628Z,21.73
2017-07-16T14:34:39.207Z,21.92
2017-07-16T14:39:35.842Z,22.08
2017-07-16T14:44:32.022Z,22.18
2017-07-16T14:49:27.989Z,22.33
2017-07-16T14:54:25.031Z,22.11
2017-07-16T14:59:20.858Z,22.23
2017-07-16T15:04:17.677Z,22.22
2017-07-16T15:09:13.350Z,22.50
2017-07-16T15:14:09.272Z,22.48
2017-07-16T15:19:05.303Z,22.51
2017-07-16T15:24:01.218Z,22.55
2017-07-16T15:28:57.922Z,22.51
2017-07-16T15:33:56.374Z,22.44
2017-07-16T15:38:52.611Z,22.60
2017-07-16T15:43:48.175Z,22.69
2017-07-16T15:55:20.579Z,22.41
2017-07-16T16:00:15.772Z,22.57
2017-07-16T16:05:11.737Z,22.57
2017-07-16T16:10:07.378Z,22.54
2017-07-16T16:15:04.404Z,22.54
2017-07-16T16:20:00.051Z,22.47
2017-07-16T16:24:56.013Z,22.47
2017-07-16T16:29:51.889Z,22.38
2017-07-16T16:34:48.566Z,22.39
2017-07-16T16:39:44.027Z,22.43
2017-07-16T16:44:40.805Z,22.41
2017-07-16T16:49:36.295Z,22.30
2017-07-16T16:54:32.503Z,22.29
2017-07-16T16:59:28.231Z,22.25
2017-07-16T17:04:24.858Z,22.08
2017-07-16T17:09:21.463Z,21.92
2017-07-16T17:14:16.949Z,21.79
2017-07-16T17:19:12.694Z,21.75
2017-07-16T17:24:09.554Z,21.77
2017-07-16T17:29:05.209Z,21.61
2017-07-16T17:34:01.104Z,21.62
2017-07-16T17:38:57.049Z,21.61
2017-07-16T17:43:54.597Z,21.55
2017-07-16T17:48:50.341Z,21.54
2017-07-16T17:53:46.481Z,21.48
2017-07-16T17:58:42.267Z,21.55
2017-07-16T18:03:39.210Z,21.43
2017-07-16T18:08:35.996Z,21.48
2017-07-16T18:13:31.832Z,21.45
2017-07-16T18:18:28.858Z,21.35
2017-07-16T18:23:25.392Z,21.20
2017-07-16T18:28:20.747Z,21.18
2017-07-16T18:33:16.503Z,21.00
2017-07-16T18:38:12.310Z,21.03
2017-07-16T18:43:08.141Z,21.02
2017-07-16T18:48:04.359Z,20.96
2017-07-16T18:53:01.123Z,20.95
2017-07-16T18:57:56.852Z,20.96
2017-07-16T19:02:53.638Z,21.05
2017-07-16T19:07:49.415Z,20.96
2017-07-16T19:12:45.214Z,20.99
2017-07-16T19:17:40.973Z,20.81
2017-07-16T19:22:36.953Z,20.84
2017-07-16T19:27:33.775Z,20.80
2017-07-16T19:32:30.473Z,20.75
2017-07-16T19:37:26.922Z,20.75
2017-07-16T19:42:23.870Z,20.70
2017-07-16T19:47:20.534Z,20.65
2017-07-16T19:52:16.459Z,20.56
2017-07-16T19:57:12.270Z,20.56
2017-07-16T20:02:08.408Z,20.50
2017-07-16T20:07:04.165Z,20.39
2017-07-16T20:12:00.052Z,20.43
2017-07-16T20:16:56.812Z,20.32
2017-07-16T20:21:52.817Z,20.31
2017-07-16T20:26:48.836Z,20.26
2017-07-16T20:31:44.966Z,20.29
2017-07-16T20:36:41.811Z,20.14
2017-07-16T20:41:37.435Z,20.25
2017-07-16T20:46:34.787Z,20.21
2017-07-16T20:51:30.703Z,20.26
2017-07-16T20:56:26.503Z,20.18
2017-07-16T21:01:23.524Z,20.22
2017-07-16T21:06:19.112Z,20.16
2017-07-16T21:11:16.289Z,20.22
2017-07-16T21:16:11.957Z,20.09
2017-07-16T21:21:07.891Z,20.06
2017-07-16T21:26:04.823Z,19.92
2017-07-16T21:31:00.613Z,20.03
2017-07-16T21:35:57.410Z,19.99
2017-07-16T21:40:52.762Z,19.92
2017-07-16T21:45:49.107Z,19.91
2017-07-16T21:50:45.118Z,19.92
2017-07-16T21:55:41.420Z,19.85
2017-07-16T22:00:37.320Z,19.67
2017-07-16T22:05:33.176Z,19.76
2017-07-16T22:10:29.299Z,19.70
2017-07-16T22:15:25.348Z,19.69
2017-07-16T22:20:21.720Z,19.69
2017-07-16T22:25:17.786Z,19.70
2017-07-16T22:30:14.741Z,19.73
2017-07-16T22:35:11.312Z,19.67
2017-07-16T22:40:07.164Z,19.64
2017-07-16T22:45:03.015Z,19.66
2017-07-16T22:49:59.810Z,19.64
2017-07-16T22:54:55.293Z,19.62
2017-07-16T22:59:52.297Z,19.52
2017-07-16T23:04:47.931Z,19.55
2017-07-16T23:09:44.834Z,19.54
2017-07-16T23:14:41.612Z,19.58
2017-07-16T23:19:38.297Z,19.55
2017-07-16T23:24:34.465Z,19.55
2017-07-16T23:29:30.368Z,19.41
2017-07-16T23:34:26.456Z,19.45
2017-07-16T23:39:22.697Z,19.33
2017-07-16T23:44:19.516Z,19.37
2017-07-16T23:49:15.137Z,19.15
2017-07-16T23:54:11.039Z,19.14
2017-07-16T23:59:06.966Z,19.07
